Mendaro, Spain
Current Conditions -  °F | °C
As of 11:00 PM on Monday 20 Oct 2014 (Local Time) from LEBB Reporting Station
Few Clouds Few Clouds  
Wind Chill: 63°   Ceiling: Unl
Heat Index: 63°   Visibility: 4mi
Dew Point: 61°   Wind: 1mph
Humidity: 94%   Direction: NA
Pressure: 30.18"   Gusts: NA
Location:  43.25°N, 2.39°W
Report Text: LEBB 202100Z VRB01KT 7000 FEW040 17/16 Q1022 NOSIG
Loading
Personal Weather Stations






























Interactive Weather Map
Tropical Storm Tracking
New forecast layout! Learn more

10-Day Weather Forecast

Advertisements
Track Severe Weather on mobile